createdAt,value
2018-12-23T00:00:36.334Z,7.47
2018-12-23T00:03:03.738Z,5.83
2018-12-23T00:05:31.136Z,10.53
2018-12-23T00:07:58.563Z,5.05
2018-12-23T00:10:25.985Z,10.30
2018-12-23T00:12:53.383Z,9.03
2018-12-23T00:15:20.869Z,7.42
2018-12-23T00:17:48.278Z,8.33
2018-12-23T00:20:15.772Z,5.87
2018-12-23T00:22:43.213Z,10.18
2018-12-23T00:25:10.640Z,9.08
2018-12-23T00:27:38.035Z,9.08
2018-12-23T00:30:06.787Z,5.40
2018-12-23T00:32:34.191Z,7.55
2018-12-23T00:35:01.608Z,11.25
2018-12-23T00:37:29.005Z,8.50
2018-12-23T00:39:56.417Z,9.65
2018-12-23T00:42:23.824Z,7.67
2018-12-23T00:44:51.214Z,7.20
2018-12-23T00:47:18.669Z,9.70
2018-12-23T00:49:46.067Z,10.53
2018-12-23T00:52:13.486Z,7.12
2018-12-23T00:54:40.877Z,8.93
2018-12-23T00:57:08.277Z,11.83
2018-12-23T00:59:35.691Z,11.90
2018-12-23T01:02:03.100Z,11.75
2018-12-23T01:04:30.538Z,10.25
2018-12-23T01:06:57.929Z,10.70
2018-12-23T01:09:25.367Z,9.55
2018-12-23T01:11:52.796Z,12.15
2018-12-23T01:14:20.249Z,11.03
2018-12-23T01:16:47.714Z,5.47
2018-12-23T01:19:15.122Z,10.50
2018-12-23T01:21:42.522Z,9.95
2018-12-23T01:24:09.936Z,9.30
2018-12-23T01:26:37.353Z,10.20
2018-12-23T01:29:04.765Z,8.80
2018-12-23T01:31:32.153Z,8.00
2018-12-23T01:33:59.556Z,8.93
2018-12-23T01:36:26.954Z,12.75
2018-12-23T01:38:54.383Z,9.10
2018-12-23T01:41:21.770Z,6.97
2018-12-23T01:43:49.170Z,7.40
2018-12-23T01:46:16.568Z,11.38
2018-12-23T01:48:43.969Z,9.53
2018-12-23T01:51:11.398Z,9.03
2018-12-23T01:53:38.818Z,10.72
2018-12-23T01:56:06.238Z,6.53
2018-12-23T01:58:33.661Z,10.10
2018-12-23T02:01:01.062Z,12.18
2018-12-23T02:03:28.466Z,10.85
2018-12-23T02:05:55.870Z,7.90
2018-12-23T02:08:23.275Z,10.90
2018-12-23T02:10:50.692Z,10.25
2018-12-23T02:13:18.219Z,9.00
2018-12-23T02:15:45.621Z,10.20
2018-12-23T02:18:13.042Z,9.80
2018-12-23T02:20:40.457Z,10.55
2018-12-23T02:23:07.846Z,10.20
2018-12-23T02:25:35.356Z,10.43
2018-12-23T02:28:02.744Z,10.30
2018-12-23T02:30:30.185Z,8.73
2018-12-23T02:32:57.577Z,12.05
2018-12-23T02:35:24.998Z,10.70
2018-12-23T02:37:52.406Z,8.63
2018-12-23T02:40:19.810Z,6.33
2018-12-23T02:42:47.207Z,7.53
2018-12-23T02:45:14.610Z,8.20
2018-12-23T02:47:42.035Z,8.03
2018-12-23T02:50:09.429Z,6.67
2018-12-23T02:52:36.860Z,10.18
2018-12-23T02:55:04.326Z,7.75
2018-12-23T02:57:31.709Z,9.40
2018-12-23T02:59:59.132Z,12.53
2018-12-23T03:02:26.520Z,13.50
2018-12-23T03:04:53.950Z,5.65
2018-12-23T03:07:21.345Z,9.98
2018-12-23T03:09:48.779Z,8.08
2018-12-23T03:12:16.169Z,8.03
2018-12-23T03:14:43.566Z,9.28
2018-12-23T03:17:11.003Z,12.05
2018-12-23T03:19:38.432Z,10.20
2018-12-23T03:22:05.839Z,8.85
2018-12-23T03:24:33.231Z,8.85
2018-12-23T03:27:00.629Z,8.80
2018-12-23T03:29:28.033Z,10.23
2018-12-23T03:31:55.869Z,10.20
2018-12-23T03:34:23.348Z,8.83
2018-12-23T03:36:50.753Z,7.67
2018-12-23T03:39:18.150Z,7.80
2018-12-23T03:41:45.558Z,7.80
2018-12-23T03:44:12.983Z,9.20
2018-12-23T03:46:40.384Z,6.60
2018-12-23T03:49:08.024Z,6.42
2018-12-23T03:51:35.577Z,10.13
2018-12-23T03:54:02.994Z,7.22
2018-12-23T03:56:30.426Z,7.42
2018-12-23T03:58:57.820Z,7.03
2018-12-23T04:01:25.218Z,5.83
2018-12-23T04:03:52.618Z,7.95
2018-12-23T04:06:24.472Z,7.78
2018-12-23T04:08:49.500Z,7.45
2018-12-23T04:11:16.946Z,6.87
2018-12-23T04:13:44.327Z,5.22
2018-12-23T04:16:11.731Z,8.58
2018-12-23T04:18:39.151Z,9.75
2018-12-23T04:21:06.557Z,7.28
2018-12-23T04:23:34.071Z,10.55
2018-12-23T04:26:01.475Z,6.83
2018-12-23T04:28:28.867Z,8.60
2018-12-23T04:30:56.277Z,5.28
2018-12-23T04:33:23.679Z,6.25
2018-12-23T04:35:51.114Z,7.25
2018-12-23T04:38:18.511Z,8.83
2018-12-23T04:40:46.030Z,9.10
2018-12-23T04:43:13.428Z,5.83
2018-12-23T04:45:40.826Z,4.90
2018-12-23T04:48:08.219Z,6.83
2018-12-23T04:50:35.646Z,9.08
2018-12-23T04:53:03.066Z,7.50
2018-12-23T04:55:30.487Z,6.30
2018-12-23T04:57:57.925Z,9.33
2018-12-23T05:00:25.411Z,8.43
2018-12-23T05:02:52.814Z,6.35
2018-12-23T05:05:20.239Z,10.28
2018-12-23T05:07:47.634Z,5.10
2018-12-23T05:10:15.050Z,5.05
2018-12-23T05:12:42.450Z,6.17
2018-12-23T05:15:09.847Z,5.12
2018-12-23T05:17:37.250Z,7.12
2018-12-23T05:20:04.640Z,5.83
2018-12-23T05:22:32.062Z,7.03
2018-12-23T05:24:59.467Z,4.97
2018-12-23T05:27:26.875Z,7.47
2018-12-23T05:29:54.265Z,3.85
2018-12-23T05:32:21.678Z,3.55
2018-12-23T05:34:49.069Z,2.42
2018-12-23T05:37:16.472Z,3.83
2018-12-23T05:39:44.087Z,2.47
2018-12-23T05:42:11.485Z,6.42
2018-12-23T05:44:38.875Z,5.58
2018-12-23T05:47:06.282Z,4.62
2018-12-23T05:49:33.674Z,7.50
2018-12-23T05:52:01.082Z,5.95
2018-12-23T05:54:28.473Z,5.58
2018-12-23T05:56:55.882Z,7.97
2018-12-23T05:59:23.299Z,4.00
2018-12-23T06:01:50.726Z,5.97
2018-12-23T06:04:18.114Z,5.75
2018-12-23T06:06:45.517Z,3.40
2018-12-23T06:09:12.914Z,4.35
2018-12-23T06:11:40.323Z,5.95
2018-12-23T06:14:07.718Z,6.72
2018-12-23T06:16:35.127Z,6.10
2018-12-23T06:19:02.519Z,6.58
2018-12-23T06:21:29.930Z,9.53
2018-12-23T06:23:57.317Z,4.72
2018-12-23T06:26:24.750Z,6.67
2018-12-23T06:28:52.151Z,5.15
2018-12-23T06:31:19.547Z,4.92
2018-12-23T06:33:46.951Z,4.03
2018-12-23T06:36:14.344Z,5.70
2018-12-23T06:38:41.850Z,3.80
2018-12-23T06:41:09.246Z,3.55
2018-12-23T06:43:36.658Z,5.12
2018-12-23T06:46:04.055Z,4.90
2018-12-23T06:48:31.557Z,5.85
2018-12-23T06:50:58.974Z,6.53
2018-12-23T06:53:26.379Z,5.10
2018-12-23T06:55:53.775Z,6.55
2018-12-23T06:58:21.175Z,5.20
2018-12-23T07:00:48.613Z,4.92
2018-12-23T07:03:16.047Z,7.60
2018-12-23T07:05:43.439Z,4.45
2018-12-23T07:08:10.834Z,5.85
2018-12-23T07:10:38.243Z,7.33
2018-12-23T07:13:05.679Z,4.20
2018-12-23T07:15:33.071Z,4.08
2018-12-23T07:18:00.583Z,3.98
2018-12-23T07:20:27.970Z,6.35
2018-12-23T07:22:55.394Z,3.37
2018-12-23T07:25:22.795Z,8.33
2018-12-23T07:27:50.200Z,3.65
2018-12-23T07:30:17.606Z,5.00
2018-12-23T07:32:45.005Z,3.08
2018-12-23T07:35:12.411Z,9.08
2018-12-23T07:37:39.852Z,5.05
2018-12-23T07:40:07.240Z,5.60
2018-12-23T07:42:34.636Z,4.22
2018-12-23T07:45:02.036Z,3.08
2018-12-23T07:47:29.539Z,7.70
2018-12-23T07:49:56.953Z,6.80
2018-12-23T07:52:24.379Z,3.67
2018-12-23T07:54:51.798Z,8.43
2018-12-23T07:57:19.226Z,4.55
2018-12-23T07:59:46.622Z,4.42
2018-12-23T08:02:14.042Z,5.47
2018-12-23T08:04:41.435Z,4.22
2018-12-23T08:07:08.822Z,4.72
2018-12-23T08:09:36.226Z,4.75
2018-12-23T08:12:03.626Z,7.92
2018-12-23T08:14:31.026Z,6.90
2018-12-23T08:16:58.423Z,3.42
2018-12-23T08:19:25.859Z,6.85
2018-12-23T08:21:53.251Z,4.37
2018-12-23T08:24:20.671Z,5.30
2018-12-23T08:26:48.063Z,5.90
2018-12-23T08:29:15.463Z,6.55
2018-12-23T08:31:42.887Z,4.85
2018-12-23T08:34:10.321Z,6.60
2018-12-23T08:36:37.715Z,4.78
2018-12-23T08:39:05.649Z,7.22
2018-12-23T08:41:33.159Z,4.20
2018-12-23T08:44:00.674Z,4.03
2018-12-23T08:46:28.063Z,5.47
2018-12-23T08:48:55.487Z,3.60
2018-12-23T08:51:22.885Z,6.92
2018-12-23T08:53:50.284Z,4.35
2018-12-23T08:56:17.697Z,8.83
2018-12-23T08:58:45.093Z,5.90
2018-12-23T09:01:12.495Z,5.25
2018-12-23T09:03:39.894Z,3.52
2018-12-23T09:06:07.313Z,3.52
2018-12-23T09:08:34.714Z,4.25
2018-12-23T09:11:02.113Z,3.85
2018-12-23T09:13:29.515Z,4.55
2018-12-23T09:15:56.919Z,4.83
2018-12-23T09:18:24.318Z,5.08
2018-12-23T09:20:51.722Z,8.05
2018-12-23T09:23:19.129Z,5.30
2018-12-23T09:25:46.529Z,5.17
2018-12-23T09:28:14.159Z,6.08
2018-12-23T09:30:41.556Z,5.55
2018-12-23T09:33:08.947Z,5.20
2018-12-23T09:35:36.358Z,5.12
2018-12-23T09:38:03.754Z,4.60
2018-12-23T09:40:31.162Z,5.37
2018-12-23T09:42:58.555Z,8.08
2018-12-23T09:45:26.074Z,5.12
2018-12-23T09:47:53.474Z,7.22
2018-12-23T09:50:20.916Z,6.67
2018-12-23T09:52:48.306Z,4.30
2018-12-23T09:55:15.709Z,5.58
2018-12-23T09:57:43.127Z,3.00
2018-12-23T10:00:10.533Z,4.37
2018-12-23T10:02:37.926Z,3.55
2018-12-23T10:05:05.982Z,5.80
2018-12-23T10:07:33.393Z,8.20
2018-12-23T10:10:00.789Z,6.53
2018-12-23T10:12:28.194Z,9.95
2018-12-23T10:14:55.630Z,6.72
2018-12-23T10:17:23.059Z,3.33
2018-12-23T10:19:50.465Z,8.00
2018-12-23T10:22:17.853Z,5.62
2018-12-23T10:24:45.351Z,7.33
2018-12-23T10:27:12.746Z,4.75
2018-12-23T10:29:40.166Z,5.70
2018-12-23T10:32:07.561Z,3.70
2018-12-23T10:34:34.970Z,7.30
2018-12-23T10:37:02.373Z,6.45
2018-12-23T10:39:29.770Z,6.28
2018-12-23T10:41:57.178Z,5.35
2018-12-23T10:44:24.675Z,5.33
2018-12-23T10:46:52.095Z,4.87
2018-12-23T10:49:19.504Z,8.48
2018-12-23T10:51:46.898Z,5.05
2018-12-23T10:54:14.358Z,7.95
2018-12-23T10:56:41.787Z,6.05
2018-12-23T10:59:09.174Z,5.80
2018-12-23T11:01:36.573Z,6.47
2018-12-23T11:04:03.997Z,5.87
2018-12-23T11:06:31.402Z,7.08
2018-12-23T11:08:59.131Z,7.87
2018-12-23T11:11:26.712Z,6.80
2018-12-23T11:13:54.100Z,6.20
2018-12-23T11:16:21.502Z,6.58
2018-12-23T11:18:48.895Z,7.60
2018-12-23T11:21:16.322Z,6.28
2018-12-23T11:23:43.733Z,7.83
2018-12-23T11:26:11.135Z,6.37
2018-12-23T11:29:13.429Z,5.42
2018-12-23T11:31:41.763Z,4.72
2018-12-23T11:34:10.052Z,4.67
2018-12-23T11:36:38.348Z,5.85
2018-12-23T11:39:46.748Z,9.30
2018-12-23T11:42:15.058Z,9.10
2018-12-23T11:44:43.346Z,8.78
2018-12-23T11:47:11.649Z,4.40
2018-12-23T11:49:39.967Z,4.20
2018-12-23T11:52:08.274Z,5.47
2018-12-23T11:54:36.566Z,6.05
2018-12-23T11:57:04.870Z,5.87
2018-12-23T11:59:34.355Z,6.12
2018-12-23T12:02:03.209Z,10.35
2018-12-23T12:04:31.515Z,129.18
2018-12-23T12:06:59.828Z,84.17
2018-12-23T12:09:28.147Z,80.35
2018-12-23T12:11:56.473Z,37.75
2018-12-23T12:14:24.860Z,5.60
2018-12-23T12:16:53.147Z,6.37
2018-12-23T12:19:21.444Z,6.50
2018-12-23T12:21:49.751Z,5.60
2018-12-23T12:24:37.482Z,5.95
2018-12-23T12:27:05.807Z,8.00
2018-12-23T12:29:34.129Z,5.15
2018-12-23T12:32:02.425Z,4.58
2018-12-23T12:34:30.714Z,4.95
2018-12-23T12:36:59.052Z,6.65
2018-12-23T12:39:27.343Z,4.50
2018-12-23T12:44:29.968Z,5.67
2018-12-23T12:46:58.347Z,4.97
2018-12-23T12:49:26.640Z,3.95
2018-12-23T12:51:54.932Z,5.15
2018-12-23T12:54:23.255Z,5.45
2018-12-23T12:56:51.572Z,4.42
2018-12-23T12:59:19.874Z,4.90
2018-12-23T13:01:48.190Z,5.42
2018-12-23T13:04:16.498Z,5.12
2018-12-23T13:06:44.820Z,3.70
2018-12-23T13:09:13.145Z,3.72
2018-12-23T13:11:41.461Z,4.17
2018-12-23T13:14:09.743Z,3.17
2018-12-23T13:16:38.029Z,3.30
2018-12-23T13:19:06.352Z,4.67
2018-12-23T13:21:34.644Z,5.62
2018-12-23T13:24:02.960Z,3.83
2018-12-23T13:26:31.245Z,3.92
2018-12-23T13:28:59.546Z,4.83
2018-12-23T13:31:27.829Z,4.67
2018-12-23T13:33:56.126Z,6.47
2018-12-23T13:36:24.414Z,5.25
2018-12-23T13:38:52.734Z,4.72
2018-12-23T13:41:59.815Z,5.62
2018-12-23T13:45:08.237Z,4.55
2018-12-23T13:54:17.331Z,4.40
2018-12-23T14:00:25.725Z,4.35
2018-12-23T14:12:09.961Z,4.37
2018-12-23T14:14:38.270Z,3.65
2018-12-23T14:17:06.582Z,6.08
2018-12-23T14:19:34.881Z,5.58
2018-12-23T14:22:03.169Z,6.58
2018-12-23T14:24:31.455Z,4.37
2018-12-23T14:26:59.780Z,4.47
2018-12-23T14:29:28.069Z,3.77
2018-12-23T14:31:56.387Z,2.70
2018-12-23T14:34:24.702Z,4.33
2018-12-23T14:36:53.013Z,3.17
2018-12-23T14:39:26.167Z,4.90
2018-12-23T14:41:51.330Z,2.83
2018-12-23T14:44:19.617Z,2.77
2018-12-23T14:46:47.935Z,4.37
2018-12-23T14:49:16.242Z,3.37
2018-12-23T14:51:44.544Z,4.83
2018-12-23T14:54:12.834Z,6.45
2018-12-23T14:56:41.128Z,3.02
2018-12-23T14:59:09.413Z,2.92
2018-12-23T15:01:37.716Z,4.87
2018-12-23T15:04:06.004Z,3.37
2018-12-23T15:06:34.306Z,3.15
2018-12-23T15:09:02.659Z,5.05
2018-12-23T15:11:30.954Z,4.35
2018-12-23T15:13:59.237Z,2.95
2018-12-23T15:16:27.538Z,5.62
2018-12-23T15:18:55.833Z,5.40
2018-12-23T15:21:24.135Z,3.72
2018-12-23T15:23:52.422Z,3.75
2018-12-23T15:26:20.721Z,4.37
2018-12-23T15:28:49.007Z,4.53
2018-12-23T15:31:17.293Z,6.00
2018-12-23T15:33:45.595Z,6.90
2018-12-23T15:39:08.652Z,6.42
2018-12-23T15:41:37.076Z,5.60
2018-12-23T15:44:05.366Z,8.20
2018-12-23T15:46:33.650Z,4.22
2018-12-23T15:49:01.948Z,6.85
2018-12-23T15:51:30.236Z,6.03
2018-12-23T15:53:58.539Z,3.00
2018-12-23T15:56:26.823Z,6.83
2018-12-23T15:58:55.122Z,5.95
2018-12-23T16:01:23.414Z,6.85
2018-12-23T16:03:51.716Z,9.40
2018-12-23T16:06:20.009Z,5.12
2018-12-23T16:08:48.337Z,7.45
2018-12-23T16:11:16.702Z,5.97
2018-12-23T16:13:45.013Z,6.17
2018-12-23T16:16:13.327Z,7.75
2018-12-23T16:21:14.958Z,3.83
2018-12-23T16:23:43.265Z,5.25
2018-12-23T16:26:11.645Z,7.80
2018-12-23T16:28:39.946Z,8.95
2018-12-23T16:31:08.238Z,8.28
2018-12-23T16:33:36.550Z,7.78
2018-12-23T16:36:04.867Z,8.13
2018-12-23T16:38:33.216Z,6.83
2018-12-23T16:41:01.511Z,7.72
2018-12-23T16:43:29.811Z,6.90
2018-12-23T16:45:58.103Z,5.15
2018-12-23T16:48:45.772Z,7.28
2018-12-23T16:51:14.084Z,5.20
2018-12-23T16:53:42.396Z,5.83
2018-12-23T16:56:10.683Z,6.62
2018-12-23T16:58:38.988Z,8.78
2018-12-23T17:01:07.288Z,5.37
2018-12-23T17:03:35.618Z,5.87
2018-12-23T17:06:03.938Z,5.37
2018-12-23T17:08:32.310Z,10.98
2018-12-23T17:11:00.635Z,9.30
2018-12-23T17:13:28.927Z,6.62
2018-12-23T17:15:57.255Z,7.78
2018-12-23T17:18:25.545Z,6.47
2018-12-23T17:20:53.855Z,8.63
2018-12-23T17:23:22.143Z,6.50
2018-12-23T17:25:50.440Z,6.58
2018-12-23T17:28:18.726Z,6.75
2018-12-23T17:30:47.030Z,7.15
2018-12-23T17:33:15.324Z,7.03
2018-12-23T17:35:43.647Z,5.35
2018-12-23T17:38:11.936Z,4.83
2018-12-23T17:40:40.231Z,6.83
2018-12-23T17:43:08.565Z,4.47
2018-12-23T17:45:36.815Z,3.80
2018-12-23T17:48:05.099Z,2.00
2018-12-23T17:50:33.399Z,3.50
2018-12-23T17:53:01.737Z,1.65
2018-12-23T17:55:30.053Z,4.33
2018-12-23T17:57:58.335Z,3.25
2018-12-23T18:00:26.635Z,1.67
2018-12-23T18:02:54.916Z,2.92
2018-12-23T18:05:23.218Z,2.12
2018-12-23T18:07:51.505Z,2.67
2018-12-23T18:10:24.963Z,2.72
2018-12-23T18:12:49.884Z,1.70
2018-12-23T18:15:18.153Z,2.08
2018-12-23T18:17:46.475Z,2.05
2018-12-23T18:20:14.757Z,3.10
2018-12-23T18:22:43.082Z,2.98
2018-12-23T18:25:11.370Z,1.45
2018-12-23T18:27:39.690Z,2.90
2018-12-23T18:30:07.979Z,1.98
2018-12-23T18:32:36.301Z,2.47
2018-12-23T18:35:04.660Z,2.62
2018-12-23T18:37:32.951Z,2.87
2018-12-23T18:40:01.269Z,3.70
2018-12-23T18:42:29.569Z,2.10
2018-12-23T18:44:57.885Z,1.65
2018-12-23T18:47:26.212Z,4.30
2018-12-23T18:49:54.520Z,1.55
2018-12-23T18:52:22.804Z,1.35
2018-12-23T18:54:51.087Z,2.40
2018-12-23T18:57:19.381Z,2.17
2018-12-23T18:59:47.668Z,1.72
2018-12-23T19:02:15.970Z,1.20
2018-12-23T19:04:44.275Z,1.27
2018-12-23T19:07:12.655Z,1.85
2018-12-23T19:13:33.717Z,1.77
2018-12-23T19:19:41.388Z,3.33
2018-12-23T19:22:48.490Z,2.52
2018-12-23T19:25:55.601Z,2.92
2018-12-23T19:29:04.015Z,1.98
2018-12-23T19:32:11.109Z,2.00
2018-12-23T19:35:18.222Z,2.10
2018-12-23T19:38:25.335Z,2.80
2018-12-23T19:41:34.054Z,3.83
2018-12-23T19:44:42.469Z,2.85
2018-12-23T19:53:51.006Z,2.55
2018-12-23T19:56:58.108Z,1.75
2018-12-23T20:00:06.582Z,2.55
2018-12-23T20:12:28.615Z,4.47
2018-12-23T20:15:37.046Z,2.25
2018-12-23T20:21:57.753Z,3.55
2018-12-23T20:25:06.178Z,2.40
2018-12-23T20:34:27.876Z,2.22
2018-12-23T20:37:34.964Z,3.62
2018-12-23T20:40:42.076Z,2.15
2018-12-23T20:56:05.257Z,3.08
2018-12-23T20:59:12.354Z,3.55
2018-12-23T21:02:19.457Z,3.25
2018-12-23T21:14:42.553Z,3.90
2018-12-23T21:17:51.055Z,4.17
2018-12-23T21:20:58.138Z,3.22
2018-12-23T21:24:06.555Z,4.08
2018-12-23T21:30:14.570Z,4.25
2018-12-23T21:33:21.702Z,4.08
2018-12-23T21:45:45.093Z,3.58
2018-12-23T21:48:53.567Z,4.70
2018-12-23T21:52:00.649Z,4.20
2018-12-23T21:55:09.129Z,5.30
2018-12-23T21:58:16.250Z,5.05
2018-12-23T22:04:23.987Z,6.37
2018-12-23T22:07:04.844Z,5.37
2018-12-23T22:10:13.254Z,6.35
2018-12-23T22:13:20.376Z,4.50
2018-12-23T22:15:48.662Z,4.53
2018-12-23T22:18:16.945Z,1.92
2018-12-23T22:20:45.240Z,3.35
2018-12-23T22:23:13.531Z,3.15
2018-12-23T22:25:41.830Z,2.33
2018-12-23T22:28:10.142Z,3.58
2018-12-23T22:30:38.441Z,3.92
2018-12-23T22:33:06.746Z,5.72
2018-12-23T22:35:35.049Z,4.30
2018-12-23T22:38:03.336Z,6.92
2018-12-23T22:40:31.705Z,5.03
2018-12-23T22:42:59.990Z,3.40
2018-12-23T22:45:28.288Z,3.85
2018-12-23T22:47:56.602Z,7.22
2018-12-23T22:50:24.906Z,4.37
2018-12-23T22:52:53.213Z,5.33
2018-12-23T22:55:21.520Z,6.17
2018-12-23T22:57:49.815Z,4.35
2018-12-23T23:02:57.266Z,3.58
2018-12-23T23:05:25.575Z,4.47
2018-12-23T23:07:53.876Z,6.10
2018-12-23T23:10:22.170Z,6.10
2018-12-23T23:12:50.477Z,6.92
2018-12-23T23:15:20.706Z,5.72
2018-12-23T23:17:48.795Z,8.18
2018-12-23T23:20:17.096Z,5.85
2018-12-23T23:22:45.381Z,7.30
2018-12-23T23:25:13.681Z,4.45
2018-12-23T23:27:41.966Z,3.20
2018-12-23T23:30:10.268Z,4.28
2018-12-23T23:32:38.546Z,2.20
2018-12-23T23:35:06.852Z,2.35
2018-12-23T23:37:35.155Z,2.75
2018-12-23T23:40:03.434Z,2.65
2018-12-23T23:42:31.738Z,1.72
2018-12-23T23:45:00.022Z,1.90
2018-12-23T23:47:28.317Z,3.08
2018-12-23T23:49:56.607Z,2.75
2018-12-23T23:52:24.912Z,1.25
2018-12-23T23:54:53.198Z,1.90
2018-12-23T23:57:21.520Z,4.20
2018-12-23T23:59:49.816Z,6.87
